createdAt,value
2022-10-17T00:03:35.453Z,12.65
2022-10-17T00:06:06.904Z,15.32
2022-10-17T00:08:34.135Z,13.55
2022-10-17T00:11:04.739Z,16.80
2022-10-17T00:13:35.717Z,10.80
2022-10-17T00:16:03.075Z,14.10
2022-10-17T00:18:30.447Z,12.02
2022-10-17T00:20:57.815Z,15.13
2022-10-17T00:23:27.482Z,14.50
2022-10-17T00:26:02.501Z,18.10
2022-10-17T00:28:30.022Z,14.52
2022-10-17T00:30:58.475Z,11.95
2022-10-17T00:33:26.447Z,14.35
2022-10-17T00:36:03.404Z,18.00
2022-10-17T00:38:35.436Z,19.30
2022-10-17T00:41:03.316Z,17.25
2022-10-17T00:43:31.588Z,20.10
2022-10-17T00:45:59.081Z,16.70
2022-10-17T00:48:26.803Z,19.63
2022-10-17T00:50:55.142Z,15.82
2022-10-17T00:53:26.131Z,17.08
2022-10-17T00:55:55.079Z,11.45
2022-10-17T00:58:23.140Z,17.25
2022-10-17T01:00:50.660Z,14.93
2022-10-17T01:03:18.403Z,15.55
2022-10-17T01:05:47.183Z,13.68
2022-10-17T01:08:15.076Z,14.48
2022-10-17T01:11:00.723Z,15.65
2022-10-17T01:13:37.849Z,12.88
2022-10-17T01:16:25.722Z,15.75
2022-10-17T01:19:04.086Z,15.52
2022-10-17T01:21:34.340Z,13.07
2022-10-17T01:24:04.874Z,13.80
2022-10-17T01:26:45.830Z,16.77
2022-10-17T01:29:24.034Z,15.15
2022-10-17T01:32:02.999Z,16.77
2022-10-17T01:34:48.543Z,16.92
2022-10-17T01:37:20.197Z,16.80
2022-10-17T01:39:48.297Z,16.33
2022-10-17T01:42:36.473Z,17.60
2022-10-17T01:45:24.515Z,15.93
2022-10-17T01:47:53.783Z,21.67
2022-10-17T01:50:26.506Z,20.70
2022-10-17T01:52:55.936Z,21.55
2022-10-17T01:55:26.526Z,19.90
2022-10-17T01:57:58.716Z,20.42
2022-10-17T02:00:28.099Z,23.25
2022-10-17T02:03:01.162Z,19.27
2022-10-17T02:05:34.011Z,21.17
2022-10-17T02:08:01.567Z,18.30
2022-10-17T02:10:32.029Z,28.55
2022-10-17T02:15:31.990Z,21.77
2022-10-17T02:18:24.669Z,19.45
2022-10-17T02:20:55.819Z,18.77
2022-10-17T02:23:33.849Z,14.75
2022-10-17T02:26:07.474Z,15.35
2022-10-17T02:28:48.578Z,15.38
2022-10-17T02:31:16.063Z,16.25
2022-10-17T02:33:56.117Z,16.77
2022-10-17T02:36:28.307Z,20.67
2022-10-17T02:38:56.437Z,18.95
2022-10-17T02:41:25.879Z,19.33
2022-10-17T02:43:57.654Z,16.88
2022-10-17T02:46:28.768Z,21.95
2022-10-17T02:49:06.092Z,15.52
2022-10-17T02:51:55.790Z,22.20
2022-10-17T02:54:27.430Z,14.00
2022-10-17T02:57:09.365Z,17.98
2022-10-17T02:59:38.310Z,15.07
2022-10-17T03:02:06.828Z,13.65
2022-10-17T03:04:35.453Z,17.02
2022-10-17T03:07:03.026Z,17.65
2022-10-17T03:09:31.704Z,15.55
2022-10-17T03:12:00.310Z,12.48
2022-10-17T03:14:27.976Z,15.90
2022-10-17T03:16:55.749Z,15.27
2022-10-17T03:19:23.948Z,15.90
2022-10-17T03:21:53.937Z,16.52
2022-10-17T03:24:26.847Z,16.30
2022-10-17T03:26:54.903Z,17.60
2022-10-17T03:29:23.138Z,14.38
2022-10-17T03:31:50.731Z,15.77
2022-10-17T03:34:19.244Z,16.90
2022-10-17T03:36:46.970Z,21.65
2022-10-17T03:39:14.941Z,16.08
2022-10-17T03:41:43.660Z,14.75
2022-10-17T03:44:11.088Z,17.33
2022-10-17T03:46:39.013Z,21.55
2022-10-17T03:49:06.991Z,19.73
2022-10-17T03:51:35.608Z,18.35
2022-10-17T03:54:08.861Z,18.90
2022-10-17T03:56:37.510Z,17.25
2022-10-17T03:59:15.453Z,15.50
2022-10-17T04:01:46.637Z,17.48
2022-10-17T04:04:14.345Z,16.75
2022-10-17T04:06:41.858Z,18.58
2022-10-17T04:09:11.929Z,18.57
2022-10-17T04:12:02.494Z,21.73
2022-10-17T04:14:31.728Z,17.90
2022-10-17T04:16:59.873Z,19.70
2022-10-17T04:19:29.000Z,21.42
2022-10-17T04:21:57.404Z,21.40
2022-10-17T04:24:25.945Z,20.75
2022-10-17T04:29:38.012Z,21.95
2022-10-17T04:32:16.014Z,25.35
2022-10-17T04:34:53.064Z,19.05
2022-10-17T04:37:23.389Z,21.83
2022-10-17T04:39:56.159Z,21.70
2022-10-17T04:44:54.267Z,15.52
2022-10-17T04:47:24.721Z,21.98
2022-10-17T04:49:54.010Z,16.85
2022-10-17T04:52:23.440Z,22.17
2022-10-17T04:54:51.039Z,18.73
2022-10-17T04:57:23.009Z,15.63
2022-10-17T04:59:58.363Z,17.70
2022-10-17T05:02:52.320Z,16.90
2022-10-17T05:05:24.836Z,21.50
2022-10-17T05:07:55.015Z,19.23
2022-10-17T05:10:26.203Z,19.95
2022-10-17T05:12:54.975Z,14.95
2022-10-17T05:15:26.257Z,19.98
2022-10-17T05:17:58.910Z,15.70
2022-10-17T05:20:29.852Z,22.48
2022-10-17T05:22:59.931Z,16.15
2022-10-17T05:25:32.145Z,16.60
2022-10-17T05:27:59.644Z,14.93
2022-10-17T05:30:27.509Z,15.00
2022-10-17T05:32:59.451Z,15.07
2022-10-17T05:35:26.874Z,15.50
2022-10-17T05:37:54.694Z,18.33
2022-10-17T05:42:54.576Z,18.30
2022-10-17T05:45:24.396Z,15.50
2022-10-17T05:47:53.211Z,14.57
2022-10-17T05:50:23.019Z,16.20
2022-10-17T05:53:04.847Z,17.30
2022-10-17T05:55:38.043Z,13.27
2022-10-17T05:58:05.633Z,15.18
2022-10-17T06:00:37.441Z,18.10
2022-10-17T06:03:06.253Z,17.83
2022-10-17T06:05:36.203Z,14.63
2022-10-17T06:08:03.745Z,17.02
2022-10-17T06:10:35.559Z,15.38
2022-10-17T06:13:03.177Z,21.05
2022-10-17T06:15:30.735Z,17.25
2022-10-17T06:18:06.155Z,22.20
2022-10-17T06:20:34.423Z,19.40
2022-10-17T06:23:02.901Z,20.88
2022-10-17T06:25:50.834Z,18.83
2022-10-17T06:28:23.647Z,19.38
2022-10-17T06:30:52.355Z,21.45
2022-10-17T06:33:24.380Z,21.30
2022-10-17T06:35:54.777Z,16.08
2022-10-17T06:38:26.668Z,23.13
2022-10-17T06:41:03.150Z,20.40
2022-10-17T06:43:30.829Z,19.15
2022-10-17T06:46:18.312Z,13.95
2022-10-17T06:48:56.145Z,15.23
2022-10-17T06:51:36.938Z,19.52
2022-10-17T06:54:07.982Z,17.20
2022-10-17T06:57:11.370Z,14.73
2022-10-17T06:59:55.476Z,21.35
2022-10-17T07:02:27.720Z,22.60
2022-10-17T07:07:25.630Z,23.30
2022-10-17T07:09:54.268Z,17.60
2022-10-17T07:12:22.021Z,18.75
2022-10-17T07:14:50.753Z,18.55
2022-10-17T07:17:19.415Z,20.08
2022-10-17T07:19:47.700Z,18.65
2022-10-17T07:22:15.637Z,19.92
2022-10-17T07:27:24.157Z,26.25
2022-10-17T07:32:40.829Z,18.15
2022-10-17T07:35:11.846Z,16.15
2022-10-17T07:37:41.077Z,21.48
2022-10-17T07:40:09.463Z,25.20
2022-10-17T07:45:07.817Z,17.42
2022-10-17T07:47:36.034Z,17.83
2022-10-17T07:50:06.590Z,23.88
2022-10-17T07:52:34.134Z,16.65
2022-10-17T07:55:02.025Z,21.80
2022-10-17T07:57:29.644Z,17.88
2022-10-17T07:59:57.140Z,17.98
2022-10-17T08:02:29.196Z,18.73
2022-10-17T08:04:57.146Z,19.83
2022-10-17T08:07:29.146Z,22.42
2022-10-17T08:09:57.523Z,20.17
2022-10-17T08:12:26.094Z,22.08
2022-10-17T08:14:54.173Z,19.55
2022-10-17T08:17:22.006Z,21.50
2022-10-17T08:19:49.636Z,22.90
2022-10-17T08:22:17.053Z,27.10
2022-10-17T08:24:46.224Z,24.35
2022-10-17T08:27:14.017Z,21.60
2022-10-17T08:29:41.514Z,25.35
2022-10-17T08:32:10.321Z,19.50
2022-10-17T08:34:38.204Z,28.05
2022-10-17T08:37:06.110Z,19.48
2022-10-17T08:39:33.642Z,19.50
2022-10-17T08:42:10.066Z,23.15
2022-10-17T08:44:58.867Z,21.90
2022-10-17T08:47:34.846Z,23.25
2022-10-17T08:50:08.924Z,12.68
2022-10-17T08:52:40.089Z,17.63
2022-10-17T08:57:49.043Z,20.27
2022-10-17T09:00:22.330Z,13.98
2022-10-17T09:03:14.151Z,20.45
2022-10-17T09:05:47.138Z,17.98
2022-10-17T09:08:47.959Z,18.23
2022-10-17T09:11:35.447Z,19.25
2022-10-17T09:14:43.111Z,23.08
2022-10-17T09:17:25.101Z,22.15
2022-10-17T09:20:15.335Z,21.05
2022-10-17T09:22:53.384Z,21.00
2022-10-17T09:25:22.336Z,19.02
2022-10-17T09:27:53.933Z,19.75
2022-10-17T09:30:43.664Z,22.10
2022-10-17T09:33:28.491Z,21.35
2022-10-17T09:36:04.760Z,20.65
2022-10-17T09:38:37.546Z,19.83
2022-10-17T09:41:25.690Z,17.50
2022-10-17T09:46:38.277Z,18.52
2022-10-17T09:49:18.212Z,19.38
2022-10-17T09:51:46.150Z,21.13
2022-10-17T09:54:22.115Z,17.92
2022-10-17T09:56:59.219Z,16.10
2022-10-17T09:59:34.793Z,18.55
2022-10-17T10:02:29.236Z,21.48
2022-10-17T10:05:07.274Z,16.33
2022-10-17T10:07:39.904Z,16.55
2022-10-17T10:10:09.046Z,14.55
2022-10-17T10:12:38.619Z,17.10
2022-10-17T10:15:25.061Z,25.87
2022-10-17T10:17:53.134Z,23.25
2022-10-17T10:20:35.051Z,18.30
2022-10-17T10:23:23.158Z,16.13
2022-10-17T10:26:03.368Z,15.60
2022-10-17T10:28:34.345Z,17.85
2022-10-17T10:31:05.799Z,20.20
2022-10-17T10:33:39.261Z,15.90
2022-10-17T10:36:10.491Z,15.82
2022-10-17T10:38:45.786Z,13.90
2022-10-17T10:41:14.975Z,17.30
2022-10-17T10:43:46.247Z,20.58
2022-10-17T10:46:28.300Z,17.52
2022-10-17T10:49:00.981Z,15.55
2022-10-17T10:51:42.704Z,17.88
2022-10-17T10:54:32.766Z,15.00
2022-10-17T10:57:03.800Z,18.33
2022-10-17T10:59:34.863Z,18.55
2022-10-17T11:02:05.621Z,20.30
2022-10-17T11:04:33.056Z,14.95
2022-10-17T11:07:20.335Z,20.15
2022-10-17T11:09:48.705Z,20.30
2022-10-17T11:12:23.188Z,15.75
2022-10-17T11:14:55.874Z,16.10
2022-10-17T11:17:26.868Z,20.38
2022-10-17T11:20:07.448Z,21.40
2022-10-17T11:22:38.660Z,20.23
2022-10-17T11:25:12.379Z,18.52
2022-10-17T11:27:40.222Z,19.10
2022-10-17T11:30:08.023Z,16.45
2022-10-17T11:32:41.929Z,16.70
2022-10-17T11:35:18.365Z,18.58
2022-10-17T11:37:49.291Z,18.30
2022-10-17T11:40:24.473Z,16.60
2022-10-17T11:42:58.426Z,16.73
2022-10-17T11:45:27.430Z,19.30
2022-10-17T11:47:59.569Z,20.23
2022-10-17T11:53:22.192Z,20.23
2022-10-17T11:55:53.094Z,22.02
2022-10-17T11:58:45.784Z,20.40
2022-10-17T12:01:32.298Z,20.80
2022-10-17T12:04:17.876Z,12.68
2022-10-17T12:07:11.170Z,16.67
2022-10-17T12:09:53.568Z,17.80
2022-10-17T12:12:25.946Z,18.08
2022-10-17T12:15:16.271Z,19.65
2022-10-17T12:17:45.654Z,13.52
2022-10-17T12:20:25.388Z,19.05
2022-10-17T12:22:55.465Z,16.95
2022-10-17T12:25:32.744Z,17.15
2022-10-17T12:28:06.294Z,16.73
2022-10-17T12:30:34.636Z,15.20
2022-10-17T12:33:23.527Z,16.95
2022-10-17T12:35:53.328Z,16.55
2022-10-17T12:38:23.526Z,18.70
2022-10-17T12:40:53.545Z,21.05
2022-10-17T12:43:29.938Z,20.52
2022-10-17T12:45:58.707Z,17.73
2022-10-17T12:48:35.720Z,16.88
2022-10-17T12:51:30.683Z,21.70
2022-10-17T12:53:58.213Z,22.45
2022-10-17T12:56:53.105Z,24.58
2022-10-17T12:59:28.726Z,21.15
2022-10-17T13:01:59.866Z,19.10
2022-10-17T13:04:27.859Z,22.23
2022-10-17T13:06:57.107Z,19.70
2022-10-17T13:09:27.662Z,21.65
2022-10-17T13:14:28.442Z,27.20
2022-10-17T13:17:03.688Z,22.95
2022-10-17T13:19:32.672Z,22.90
2022-10-17T13:22:06.400Z,24.35
2022-10-17T13:24:37.039Z,22.25
2022-10-17T13:27:06.551Z,24.70
2022-10-17T13:29:34.268Z,19.50
2022-10-17T13:32:04.085Z,20.92
2022-10-17T13:34:32.529Z,23.85
2022-10-17T13:37:01.626Z,23.88
2022-10-17T13:39:45.617Z,24.73
2022-10-17T13:42:27.365Z,23.13
2022-10-17T13:44:56.231Z,23.05
2022-10-17T13:47:29.793Z,24.25
2022-10-17T13:49:58.718Z,25.98
2022-10-17T13:52:27.858Z,24.20
2022-10-17T13:54:56.391Z,26.90
2022-10-17T13:57:26.256Z,34.50
2022-10-17T14:00:01.376Z,28.42
2022-10-17T14:02:30.970Z,32.60
2022-10-17T14:05:20.193Z,25.33
2022-10-17T14:08:14.496Z,27.00
2022-10-17T14:10:45.696Z,26.58
2022-10-17T14:13:30.850Z,30.80
2022-10-17T14:16:01.095Z,25.13
2022-10-17T14:18:35.771Z,28.65
2022-10-17T14:21:40.611Z,28.17
2022-10-17T14:23:53.517Z,32.30
2022-10-17T14:26:23.868Z,26.90
2022-10-17T14:31:21.842Z,25.40
2022-10-17T14:33:51.977Z,30.08
2022-10-17T14:36:20.298Z,24.50
2022-10-17T14:38:49.452Z,25.88
2022-10-17T14:44:16.913Z,28.73
2022-10-17T14:46:49.732Z,28.70
2022-10-17T14:49:25.176Z,23.13
2022-10-17T14:52:16.800Z,27.90
2022-10-17T14:54:46.684Z,29.15
2022-10-17T14:57:25.993Z,26.45
2022-10-17T14:59:55.728Z,22.40
2022-10-17T15:02:28.373Z,24.45
2022-10-17T15:04:56.499Z,25.50
2022-10-17T15:07:24.400Z,26.25
2022-10-17T15:09:54.285Z,22.55
2022-10-17T15:12:26.145Z,27.63
2022-10-17T15:14:54.281Z,23.75
2022-10-17T15:17:24.433Z,24.38
2022-10-17T15:19:54.529Z,26.08
2022-10-17T15:22:23.410Z,20.33
2022-10-17T15:24:51.064Z,24.02
2022-10-17T15:27:24.115Z,26.20
2022-10-17T15:29:53.284Z,19.40
2022-10-17T15:32:21.060Z,25.55
2022-10-17T15:34:49.960Z,25.95
2022-10-17T15:37:20.883Z,30.13
2022-10-17T15:39:54.529Z,28.13
2022-10-17T15:42:27.632Z,22.10
2022-10-17T15:44:55.791Z,20.55
2022-10-17T15:47:25.969Z,20.80
2022-10-17T15:49:55.362Z,22.45
2022-10-17T15:52:23.478Z,18.77
2022-10-17T15:54:51.863Z,27.90
2022-10-17T15:57:25.029Z,21.90
2022-10-17T15:59:53.207Z,25.38
2022-10-17T16:02:22.378Z,28.20
2022-10-17T16:04:50.754Z,27.75
2022-10-17T16:07:19.612Z,24.45
2022-10-17T16:09:47.342Z,28.90
2022-10-17T16:12:29.230Z,26.88
2022-10-17T16:14:57.356Z,23.88
2022-10-17T16:17:26.323Z,31.58
2022-10-17T16:19:54.361Z,27.63
2022-10-17T16:22:27.401Z,26.33
2022-10-17T16:24:58.911Z,28.27
2022-10-17T16:27:26.909Z,27.10
2022-10-17T16:29:54.345Z,23.92
2022-10-17T16:32:22.071Z,32.90
2022-10-17T16:34:49.617Z,21.95
2022-10-17T16:37:16.991Z,30.92
2022-10-17T16:39:49.268Z,29.05
2022-10-17T16:42:16.809Z,30.05
2022-10-17T16:44:44.233Z,24.58
2022-10-17T16:47:11.995Z,28.63
2022-10-17T16:49:42.898Z,24.27
2022-10-17T16:52:13.565Z,30.52
2022-10-17T16:54:41.084Z,34.03
2022-10-17T16:57:08.694Z,32.28
2022-10-17T16:59:36.279Z,28.77
2022-10-17T17:02:03.807Z,32.60
2022-10-17T17:04:31.633Z,34.75
2022-10-17T17:06:59.375Z,27.23
2022-10-17T17:09:28.249Z,31.15
2022-10-17T17:11:55.679Z,26.58
2022-10-17T17:14:24.442Z,32.25
2022-10-17T17:16:52.672Z,29.73
2022-10-17T17:19:20.853Z,29.38
2022-10-17T17:21:51.003Z,25.92
2022-10-17T17:24:23.326Z,25.90
2022-10-17T17:26:53.071Z,31.60
2022-10-17T17:29:20.983Z,32.88
2022-10-17T17:31:49.337Z,32.22
2022-10-17T17:34:18.340Z,27.38
2022-10-17T17:36:46.288Z,27.63
2022-10-17T17:39:15.992Z,26.30
2022-10-17T17:41:44.389Z,25.35
2022-10-17T17:44:16.419Z,24.92
2022-10-17T17:46:44.782Z,25.70
2022-10-17T17:49:12.865Z,22.75
2022-10-17T17:51:46.723Z,24.52
2022-10-17T17:54:14.498Z,23.48
2022-10-17T17:56:42.031Z,23.38
2022-10-17T17:59:11.596Z,26.38
2022-10-17T18:01:39.766Z,27.50
2022-10-17T18:04:08.852Z,28.73
2022-10-17T18:06:37.011Z,26.67
2022-10-17T18:09:05.055Z,28.05
2022-10-17T18:11:33.289Z,36.78
2022-10-17T18:14:05.917Z,39.50
2022-10-17T18:16:34.696Z,37.78
2022-10-17T18:19:06.721Z,37.60
2022-10-17T18:21:35.589Z,33.63
2022-10-17T18:24:04.908Z,30.35
2022-10-17T18:26:32.869Z,40.22
2022-10-17T18:29:00.792Z,36.80
2022-10-17T18:31:32.165Z,36.53
2022-10-17T18:34:00.552Z,34.55
2022-10-17T18:36:30.191Z,34.35
2022-10-17T18:38:58.446Z,43.08
2022-10-17T18:41:26.967Z,35.17
2022-10-17T18:43:55.579Z,39.20
2022-10-17T18:46:27.716Z,36.10
2022-10-17T18:48:55.673Z,36.53
2022-10-17T18:51:24.153Z,37.40
2022-10-17T18:53:53.249Z,32.28
2022-10-17T18:56:22.367Z,32.53
2022-10-17T18:58:50.397Z,30.38
2022-10-17T19:01:19.272Z,32.38
2022-10-17T19:03:48.214Z,34.78
2022-10-17T19:06:16.555Z,44.63
2022-10-17T19:08:44.334Z,49.25
2022-10-17T19:11:13.284Z,40.53
2022-10-17T19:13:42.005Z,34.30
2022-10-17T19:16:13.026Z,31.52
2022-10-17T19:18:41.255Z,33.58
2022-10-17T19:21:10.903Z,34.33
2022-10-17T19:23:39.021Z,36.60
2022-10-17T19:26:09.451Z,39.35
2022-10-17T19:31:06.231Z,43.63
2022-10-17T19:33:34.624Z,36.78
2022-10-17T19:36:03.297Z,44.72
2022-10-17T19:38:30.862Z,40.97
2022-10-17T19:43:25.757Z,31.88
2022-10-17T19:46:01.545Z,35.70
2022-10-17T19:48:32.143Z,40.17
2022-10-17T19:50:59.694Z,35.13
2022-10-17T19:53:30.442Z,34.33
2022-10-17T19:55:58.465Z,33.35
2022-10-17T19:58:27.826Z,34.72
2022-10-17T20:00:57.182Z,36.45
2022-10-17T20:03:26.161Z,33.05
2022-10-17T20:05:54.613Z,39.42
2022-10-17T20:08:27.042Z,35.90
2022-10-17T20:10:54.478Z,36.60
2022-10-17T20:13:22.148Z,36.67
2022-10-17T20:15:57.083Z,40.17
2022-10-17T20:18:25.885Z,38.20
2022-10-17T20:20:57.769Z,36.60
2022-10-17T20:23:25.463Z,37.20
2022-10-17T20:26:06.693Z,38.63
2022-10-17T20:28:48.110Z,40.63
2022-10-17T20:31:16.723Z,42.10
2022-10-17T20:33:58.291Z,43.20
2022-10-17T20:36:26.920Z,38.00
2022-10-17T20:38:55.153Z,48.20
2022-10-17T20:41:26.104Z,37.60
2022-10-17T20:43:56.768Z,41.13
2022-10-17T20:49:17.019Z,38.70
2022-10-17T20:51:45.227Z,42.70
2022-10-17T20:54:13.094Z,43.00
2022-10-17T20:56:40.833Z,38.72
2022-10-17T20:59:11.547Z,38.17
2022-10-17T21:01:39.315Z,44.20
2022-10-17T21:04:33.425Z,31.40
2022-10-17T21:06:54.904Z,30.38
2022-10-17T21:09:23.047Z,32.42
2022-10-17T21:11:57.357Z,29.70
2022-10-17T21:14:26.256Z,28.85
2022-10-17T21:16:54.085Z,33.17
2022-10-17T21:19:25.253Z,27.25
2022-10-17T21:21:53.148Z,27.10
2022-10-17T21:24:21.891Z,23.63
2022-10-17T21:26:55.624Z,25.35
2022-10-17T21:29:27.009Z,28.10
2022-10-17T21:31:54.784Z,23.73
2022-10-17T21:34:25.111Z,22.42
2022-10-17T21:36:53.644Z,25.15
2022-10-17T21:39:23.321Z,22.52
2022-10-17T21:41:51.807Z,19.30
2022-10-17T21:44:21.867Z,23.95
2022-10-17T21:46:49.524Z,19.10
2022-10-17T21:49:18.342Z,22.45
2022-10-17T21:51:47.559Z,29.73
2022-10-17T21:54:16.498Z,17.85
2022-10-17T21:56:44.910Z,23.38
2022-10-17T21:59:12.403Z,22.15
2022-10-17T22:01:41.420Z,22.05
2022-10-17T22:04:12.751Z,16.45
2022-10-17T22:06:41.384Z,12.48
2022-10-17T22:09:13.955Z,17.23
2022-10-17T22:11:41.736Z,15.70
2022-10-17T22:14:11.928Z,29.27
2022-10-17T22:16:39.926Z,18.27
2022-10-17T22:19:08.746Z,14.40
2022-10-17T22:21:37.692Z,15.25
2022-10-17T22:24:06.945Z,16.65
2022-10-17T22:26:35.946Z,18.05
2022-10-17T22:29:05.040Z,14.70
2022-10-17T22:31:32.779Z,10.98
2022-10-17T22:34:05.377Z,7.82
2022-10-17T22:36:33.954Z,10.10
2022-10-17T22:39:01.801Z,11.05
2022-10-17T22:41:29.122Z,11.52
2022-10-17T22:43:56.687Z,15.55
2022-10-17T22:46:25.159Z,12.20
2022-10-17T22:48:53.378Z,13.88
2022-10-17T22:51:21.574Z,11.65
2022-10-17T22:53:49.545Z,15.65
2022-10-17T22:56:18.067Z,14.73
2022-10-17T22:58:45.856Z,11.75
2022-10-17T23:01:15.661Z,9.77
2022-10-17T23:03:43.727Z,7.03
2022-10-17T23:06:11.421Z,9.68
2022-10-17T23:08:38.975Z,13.10
2022-10-17T23:11:06.930Z,9.80
2022-10-17T23:13:34.874Z,10.80
2022-10-17T23:16:02.582Z,12.63
2022-10-17T23:20:59.009Z,13.35
2022-10-17T23:23:26.803Z,9.57
2022-10-17T23:25:54.456Z,5.80
2022-10-17T23:28:22.864Z,14.15
2022-10-17T23:30:50.490Z,10.98
2022-10-17T23:33:18.184Z,8.57
2022-10-17T23:35:45.723Z,8.57
2022-10-17T23:38:13.339Z,12.77
2022-10-17T23:40:41.000Z,12.07
2022-10-17T23:43:08.835Z,10.38
2022-10-17T23:48:07.670Z,12.05
2022-10-17T23:50:35.339Z,20.90
2022-10-17T23:53:02.750Z,14.80
2022-10-17T23:55:30.317Z,11.45
2022-10-17T23:57:58.014Z,15.80
